bureau de piste

METAR LFMD 192000Z AUTO VRB03KT CAVOK 14/07 Q1013 NOSIG

TAF AMD LFMD 191459Z 1915/2015 14006KT 9999 FEW050 BKN150 PROB40 TEMPO 1915/1917 VRB10G20KT 4000 TSRA FEW040CB SCT050 BECMG 1918/1920 36006KT CAVOK BECMG 2008/2010 16005KT

INFORMATION ADDS - 2031 UTC 19 September 2017

Plus d’information sur les terrains : LFMD et VALBERG

Les commentaires sont clos.